createdAt,value
2019-04-23T00:03:32.741Z,7.70
2019-04-23T00:08:42.184Z,7.93
2019-04-23T00:13:44.229Z,8.40
2019-04-23T00:24:03.101Z,7.43
2019-04-23T00:34:01.180Z,7.23
2019-04-23T00:39:11.731Z,7.90
2019-04-23T00:44:16.399Z,7.33
2019-04-23T00:54:32.652Z,7.23
2019-04-23T00:59:39.146Z,7.37
2019-04-23T01:04:41.998Z,7.20
2019-04-23T01:09:55.931Z,7.57
2019-04-23T01:14:55.697Z,6.83
2019-04-23T01:20:01.085Z,6.70
2019-04-23T01:24:50.300Z,6.87
2019-04-23T01:30:19.750Z,7.40
2019-04-23T01:35:41.322Z,6.57
2019-04-23T01:45:29.660Z,7.57
2019-04-23T01:50:52.194Z,6.07
2019-04-23T01:55:51.207Z,7.30
2019-04-23T02:01:03.307Z,6.23
2019-04-23T02:06:11.692Z,7.07
2019-04-23T02:11:07.952Z,6.87
2019-04-23T02:16:21.413Z,6.83
2019-04-23T02:21:32.587Z,7.37
2019-04-23T02:26:43.872Z,7.20
2019-04-23T02:31:51.050Z,6.93
2019-04-23T02:52:09.478Z,6.77
2019-04-23T02:57:28.845Z,6.97
2019-04-23T03:07:38.969Z,7.63
2019-04-23T03:12:48.983Z,8.00
2019-04-23T03:17:47.357Z,7.40
2019-04-23T03:23:02.678Z,8.03
2019-04-23T03:34:42.462Z,8.23
2019-04-23T03:38:19.806Z,7.90
2019-04-23T03:43:19.779Z,8.63
2019-04-23T03:48:26.992Z,9.13
2019-04-23T03:53:32.321Z,9.63
2019-04-23T04:08:47.438Z,9.07
2019-04-23T04:14:04.769Z,8.83
2019-04-23T04:24:01.613Z,10.07
2019-04-23T04:29:12.996Z,9.77
2019-04-23T04:34:56.045Z,9.57
2019-04-23T04:49:41.429Z,9.90
2019-04-23T04:54:22.713Z,9.20
2019-04-23T04:59:53.962Z,9.63
2019-04-23T05:04:57.816Z,8.80
2019-04-23T05:10:12.098Z,8.73
2019-04-23T05:15:04.779Z,9.17
2019-04-23T05:25:12.463Z,9.17
2019-04-23T05:30:23.024Z,8.73
2019-04-23T05:35:33.361Z,9.03
2019-04-23T05:40:49.911Z,7.87
2019-04-23T05:45:42.957Z,9.10
2019-04-23T05:50:57.799Z,8.83
2019-04-23T05:55:56.822Z,8.30
2019-04-23T06:01:45.734Z,8.33
2019-04-23T06:06:44.570Z,8.73
2019-04-23T06:11:46.592Z,8.00
2019-04-23T06:16:41.378Z,8.03
2019-04-23T06:27:00.723Z,7.83
2019-04-23T06:31:54.788Z,7.97
2019-04-23T06:37:03.231Z,7.80
2019-04-23T06:42:24.598Z,7.57
2019-04-23T06:47:16.317Z,7.03
2019-04-23T07:02:38.777Z,7.00
2019-04-23T07:08:00.911Z,6.50
2019-04-23T07:12:49.381Z,6.30
2019-04-23T07:17:57.367Z,6.47
2019-04-23T07:23:04.871Z,7.03
2019-04-23T07:28:14.948Z,5.87
2019-04-23T07:33:11.968Z,6.57
2019-04-23T07:38:48.085Z,6.37
2019-04-23T07:43:50.676Z,6.17
2019-04-23T07:48:48.020Z,6.10
2019-04-23T07:54:06.013Z,6.07
2019-04-23T07:59:08.853Z,6.30
2019-04-23T08:04:14.329Z,6.20
2019-04-23T08:09:22.358Z,6.80
2019-04-23T08:14:17.058Z,6.20
2019-04-23T08:19:32.314Z,6.20
2019-04-23T08:24:47.033Z,6.37
2019-04-23T08:29:58.561Z,6.57
2019-04-23T08:34:58.495Z,6.47
2019-04-23T08:40:03.651Z,6.70
2019-04-23T08:50:32.130Z,6.97
2019-04-23T08:55:44.548Z,6.83
2019-04-23T09:00:53.855Z,6.40
2019-04-23T09:11:30.761Z,6.60
2019-04-23T09:16:03.387Z,7.13
2019-04-23T09:26:11.069Z,6.97
2019-04-23T09:37:00.220Z,6.90
2019-04-23T09:42:05.314Z,6.67
2019-04-23T09:47:13.985Z,7.17
2019-04-23T09:52:20.440Z,7.07
2019-04-23T09:57:20.425Z,7.27
2019-04-23T10:02:23.714Z,7.20
2019-04-23T10:07:21.878Z,7.10
2019-04-23T10:12:14.670Z,8.03
2019-04-23T10:17:20.194Z,7.73
2019-04-23T10:22:25.127Z,7.97
2019-04-23T10:27:30.681Z,8.00
2019-04-23T10:32:35.859Z,8.47
2019-04-23T10:37:48.955Z,7.87
2019-04-23T10:42:48.409Z,7.67
2019-04-23T10:49:00.627Z,7.57
2019-04-23T10:54:03.489Z,8.53
2019-04-23T10:58:54.994Z,7.70
2019-04-23T11:09:27.768Z,7.83
2019-04-23T11:14:25.347Z,7.60
2019-04-23T11:19:31.960Z,8.77
2019-04-23T11:39:49.683Z,8.43
2019-04-23T11:44:56.564Z,8.20
2019-04-23T11:50:16.197Z,8.53
2019-04-23T11:55:22.427Z,8.90
2019-04-23T12:00:17.609Z,8.47
2019-04-23T12:10:54.360Z,8.27
2019-04-23T12:20:56.889Z,8.17
2019-04-23T12:31:23.550Z,8.40
2019-04-23T12:36:28.655Z,8.70
2019-04-23T12:41:42.119Z,9.03
2019-04-23T12:46:45.777Z,8.97
2019-04-23T12:51:47.167Z,9.50
2019-04-23T12:57:09.818Z,8.93
2019-04-23T13:02:03.387Z,9.03
2019-04-23T13:07:13.146Z,8.90
2019-04-23T13:12:20.203Z,9.25
2019-04-23T13:17:34.874Z,9.00
2019-04-23T13:22:24.271Z,9.20
2019-04-23T13:27:38.106Z,8.63
2019-04-23T13:32:42.946Z,9.30
2019-04-23T13:37:59.404Z,9.00
2019-04-23T13:42:57.266Z,8.80
2019-04-23T13:48:03.223Z,9.00
2019-04-23T13:53:33.557Z,9.20
2019-04-23T14:08:37.851Z,9.63
2019-04-23T14:18:53.902Z,10.00
2019-04-23T14:23:59.395Z,10.70
2019-04-23T14:34:00.173Z,11.10
2019-04-23T14:39:04.213Z,10.60
2019-04-23T14:49:16.500Z,9.27
2019-04-23T14:54:50.419Z,9.57
2019-04-23T14:59:32.017Z,12.63
2019-04-23T15:04:39.787Z,9.77
2019-04-23T15:09:57.547Z,9.40
2019-04-23T15:14:59.943Z,9.23
2019-04-23T15:20:17.274Z,9.30
2019-04-23T15:25:36.943Z,9.27
2019-04-23T15:30:21.650Z,9.10
2019-04-23T15:36:02.296Z,9.87
2019-04-23T15:40:42.066Z,9.40
2019-04-23T15:45:53.841Z,9.43
2019-04-23T15:51:06.222Z,9.60
2019-04-23T15:56:16.182Z,9.40
2019-04-23T16:01:29.222Z,9.00
2019-04-23T16:05:59.261Z,8.07
2019-04-23T16:11:41.438Z,8.30
2019-04-23T16:26:55.889Z,7.37
2019-04-23T16:32:04.487Z,6.93
2019-04-23T16:42:08.788Z,7.63
2019-04-23T16:47:19.339Z,7.53
2019-04-23T16:52:23.167Z,7.13
2019-04-23T17:02:34.217Z,5.70
2019-04-23T17:07:36.526Z,6.27
2019-04-23T17:12:52.822Z,5.60
2019-04-23T17:17:55.698Z,5.50
2019-04-23T17:23:05.170Z,5.30
2019-04-23T17:28:12.717Z,5.13
2019-04-23T17:33:18.923Z,5.00
2019-04-23T17:38:27.818Z,5.60
2019-04-23T17:43:32.883Z,5.70
2019-04-23T17:48:35.286Z,5.90
2019-04-23T17:53:58.201Z,6.00
2019-04-23T17:58:49.990Z,5.57
2019-04-23T18:09:14.563Z,5.40
2019-04-23T18:14:11.496Z,5.63
2019-04-23T18:19:16.592Z,5.27
2019-04-23T18:25:03.902Z,4.83
2019-04-23T18:35:17.063Z,5.63
2019-04-23T18:40:06.829Z,4.80
2019-04-23T18:45:22.916Z,4.50
2019-04-23T18:50:29.196Z,4.40
2019-04-23T18:55:45.197Z,3.90
2019-04-23T19:00:57.120Z,3.90
2019-04-23T19:10:53.728Z,3.70
2019-04-23T19:15:52.585Z,3.37
2019-04-23T19:26:22.787Z,3.13
2019-04-23T19:31:39.850Z,3.20
2019-04-23T19:36:40.318Z,3.03
2019-04-23T19:41:55.422Z,2.90
2019-04-23T19:46:58.351Z,3.53
2019-04-23T19:51:56.465Z,3.30
2019-04-23T19:57:01.937Z,3.13
2019-04-23T20:12:25.999Z,3.33
2019-04-23T20:22:42.199Z,6.70
2019-04-23T20:27:39.670Z,4.80
2019-04-23T20:42:53.001Z,4.50
2019-04-23T20:53:09.227Z,5.00
2019-04-23T20:58:21.225Z,5.10
2019-04-23T21:03:52.394Z,4.87
2019-04-23T21:18:51.361Z,5.40
2019-04-23T21:23:56.732Z,5.42
2019-04-23T21:28:54.034Z,5.65
2019-04-23T21:34:11.349Z,5.87
2019-04-23T21:44:18.144Z,6.70
2019-04-23T21:49:41.209Z,6.67
2019-04-23T21:54:36.547Z,7.33
2019-04-23T21:59:41.549Z,7.70
2019-04-23T22:04:58.532Z,8.13
2019-04-23T22:10:00.469Z,8.73
2019-04-23T22:14:55.881Z,9.00
2019-04-23T22:25:13.176Z,9.47
2019-04-23T22:30:22.714Z,9.53
2019-04-23T22:35:34.944Z,9.87
2019-04-23T22:40:36.980Z,10.50
2019-04-23T22:45:54.521Z,10.80
2019-04-23T22:50:57.479Z,11.50
2019-04-23T22:56:01.640Z,11.00
2019-04-23T23:01:17.849Z,10.50
2019-04-23T23:06:29.283Z,11.70
2019-04-23T23:11:13.978Z,11.83
2019-04-23T23:16:21.400Z,12.17
2019-04-23T23:21:32.500Z,11.90
2019-04-23T23:26:40.660Z,12.87
2019-04-23T23:31:47.494Z,12.50
2019-04-23T23:36:54.828Z,12.50
2019-04-23T23:41:56.995Z,11.87
2019-04-23T23:47:14.759Z,12.33
2019-04-23T23:52:03.316Z,12.77
2019-04-23T23:57:17.713Z,12.50
